Main page
METAR-TAF:

METAR-TAF

Airports :

Southwest Minnesota Regional Airport (Marshall/Ryan Field)

Marshall, Minnesota, United States

latitude: 44-27N, longitude: 095-49W, elevation: 1178 ft

Current weather observation

The report was made 6 minutes ago, at 08:56 UTC
Wind 12 mph from the South/Southeast
Temperature 43°F
Humidity 61%
Pressure 29.97 in. Hg
Visibility: 10 miles
Clear sky

METAR: KMML 130856Z AUTO 15010KT 10SM CLR 06/M01 A2997 RMK AO2 SLP155 T00611006 58020

Time: 04:02 (09:02 UTC)


TAF: missing

Weather observations and forecasts of more than 4000 airports (METAR and TAF reports).

The available stations are represented by yellow and red dots on the map.

Hover mouse over dot to see the name of the station.

Then click to see weather observations and forecasts.

To change the map : click on the green buttons with a black cross to zoom in, on the green button with a dash to zoom out, or on the green arrows for adjacent maps.


METAR-TAF: